Terminal Aerodrome Forecast
Issued by NWS

Home | Current Version | Previous Version | Text Only | Print | Product List | Glossary On
Versions: 1 2 3 4 5 6 7 8 9 10 11 12 13 14 15 16 17 18 19 20 21 22 23 24
000
FTUS43 KICT 192000 AAB
TAFCNU
TAF AMD
KCNU 192020Z 1920/2018 18008KT P6SM BKN015
     FM192200 18007KT P6SM BKN025
     FM200000 17007KT P6SM SCT040
     FM200700 17005KT 4SM BR SCT250
     FM201200 18005KT 4SM BR OVC015=

USA.gov is the U.S. government's official web portal to all federal, state and local government web resources and services.